sensor_id;sensor_type;location;lat;lon;timestamp;temperature;humidity
15103;DHT22;7652;53.584;9.998;2023-03-14T00:00:39;12.10;99.90
15103;DHT22;7652;53.584;9.998;2023-03-14T00:03:42;12.10;99.90
15103;DHT22;7652;53.584;9.998;2023-03-14T00:06:47;12.10;99.90
15103;DHT22;7652;53.584;9.998;2023-03-14T00:09:51;12.10;99.90
15103;DHT22;7652;53.584;9.998;2023-03-14T00:12:54;12.10;99.90
15103;DHT22;7652;53.584;9.998;2023-03-14T00:16:02;12.00;99.90
15103;DHT22;7652;53.584;9.998;2023-03-14T00:19:05;12.00;99.90
15103;DHT22;7652;53.584;9.998;2023-03-14T00:22:10;12.10;99.90
15103;DHT22;7652;53.584;9.998;2023-03-14T00:25:13;12.00;99.90
15103;DHT22;7652;53.584;9.998;2023-03-14T00:28:16;12.00;99.90
15103;DHT22;7652;53.584;9.998;2023-03-14T00:31:19;12.00;99.90
15103;DHT22;7652;53.584;9.998;2023-03-14T00:34:22;12.00;99.90
15103;DHT22;7652;53.584;9.998;2023-03-14T00:37:27;12.00;99.90
15103;DHT22;7652;53.584;9.998;2023-03-14T00:40:30;12.00;99.90
15103;DHT22;7652;53.584;9.998;2023-03-14T00:43:33;12.00;99.90
15103;DHT22;7652;53.584;9.998;2023-03-14T00:46:36;11.90;99.90
15103;DHT22;7652;53.584;9.998;2023-03-14T00:49:41;11.90;99.90
15103;DHT22;7652;53.584;9.998;2023-03-14T00:52:46;11.90;99.90
15103;DHT22;7652;53.584;9.998;2023-03-14T00:55:50;12.00;99.90
15103;DHT22;7652;53.584;9.998;2023-03-14T00:58:54;12.00;99.90
15103;DHT22;7652;53.584;9.998;2023-03-14T01:01:57;12.10;99.90
15103;DHT22;7652;53.584;9.998;2023-03-14T01:05:00;12.20;99.90
15103;DHT22;7652;53.584;9.998;2023-03-14T01:08:06;12.20;99.90
15103;DHT22;7652;53.584;9.998;2023-03-14T01:11:10;12.30;99.90
15103;DHT22;7652;53.584;9.998;2023-03-14T01:14:14;12.30;99.90
15103;DHT22;7652;53.584;9.998;2023-03-14T01:17:17;12.30;99.90
15103;DHT22;7652;53.584;9.998;2023-03-14T01:20:20;12.30;99.90
15103;DHT22;7652;53.584;9.998;2023-03-14T01:23:25;12.30;99.90
15103;DHT22;7652;53.584;9.998;2023-03-14T01:26:30;12.40;99.90
15103;DHT22;7652;53.584;9.998;2023-03-14T01:29:34;12.40;99.90
15103;DHT22;7652;53.584;9.998;2023-03-14T01:32:37;12.40;99.90
15103;DHT22;7652;53.584;9.998;2023-03-14T01:35:40;12.30;99.90
15103;DHT22;7652;53.584;9.998;2023-03-14T01:38:44;12.30;99.90
15103;DHT22;7652;53.584;9.998;2023-03-14T01:41:47;12.30;99.90
15103;DHT22;7652;53.584;9.998;2023-03-14T01:44:52;12.30;99.90
15103;DHT22;7652;53.584;9.998;2023-03-14T01:47:55;12.30;99.90
15103;DHT22;7652;53.584;9.998;2023-03-14T01:50:59;12.20;99.90
15103;DHT22;7652;53.584;9.998;2023-03-14T01:54:10;12.20;99.90
15103;DHT22;7652;53.584;9.998;2023-03-14T01:57:17;12.10;99.90
15103;DHT22;7652;53.584;9.998;2023-03-14T02:00:22;12.20;99.90
15103;DHT22;7652;53.584;9.998;2023-03-14T02:03:27;12.10;99.90
15103;DHT22;7652;53.584;9.998;2023-03-14T02:06:35;12.10;99.90
15103;DHT22;7652;53.584;9.998;2023-03-14T02:09:43;12.10;99.90
15103;DHT22;7652;53.584;9.998;2023-03-14T02:12:47;12.00;99.90
15103;DHT22;7652;53.584;9.998;2023-03-14T02:15:50;12.10;99.90
15103;DHT22;7652;53.584;9.998;2023-03-14T02:18:53;12.10;99.90
15103;DHT22;7652;53.584;9.998;2023-03-14T02:21:59;12.00;99.90
15103;DHT22;7652;53.584;9.998;2023-03-14T02:25:08;12.00;99.90
15103;DHT22;7652;53.584;9.998;2023-03-14T02:28:14;11.90;99.90
15103;DHT22;7652;53.584;9.998;2023-03-14T02:31:17;11.90;99.90
15103;DHT22;7652;53.584;9.998;2023-03-14T02:34:20;11.80;99.90
15103;DHT22;7652;53.584;9.998;2023-03-14T02:37:27;11.70;99.90
15103;DHT22;7652;53.584;9.998;2023-03-14T02:40:31;11.70;99.90
15103;DHT22;7652;53.584;9.998;2023-03-14T02:43:35;11.60;99.90
15103;DHT22;7652;53.584;9.998;2023-03-14T02:46:38;11.60;99.90
15103;DHT22;7652;53.584;9.998;2023-03-14T02:49:41;11.60;99.90
15103;DHT22;7652;53.584;9.998;2023-03-14T02:52:44;11.60;99.90
15103;DHT22;7652;53.584;9.998;2023-03-14T02:55:48;11.70;99.90
15103;DHT22;7652;53.584;9.998;2023-03-14T02:58:52;11.70;99.90
15103;DHT22;7652;53.584;9.998;2023-03-14T03:01:55;11.80;99.90
15103;DHT22;7652;53.584;9.998;2023-03-14T03:04:58;11.80;99.90
15103;DHT22;7652;53.584;9.998;2023-03-14T03:08:02;11.80;99.90
15103;DHT22;7652;53.584;9.998;2023-03-14T03:11:06;11.90;99.90
15103;DHT22;7652;53.584;9.998;2023-03-14T03:14:10;12.00;99.90
15103;DHT22;7652;53.584;9.998;2023-03-14T03:17:13;12.00;99.90
15103;DHT22;7652;53.584;9.998;2023-03-14T03:20:16;12.00;99.90
15103;DHT22;7652;53.584;9.998;2023-03-14T03:23:19;12.10;99.90
15103;DHT22;7652;53.584;9.998;2023-03-14T03:26:22;12.10;99.90
15103;DHT22;7652;53.584;9.998;2023-03-14T03:29:27;12.00;99.90
15103;DHT22;7652;53.584;9.998;2023-03-14T03:32:30;12.00;99.90
15103;DHT22;7652;53.584;9.998;2023-03-14T03:35:33;12.10;99.90
15103;DHT22;7652;53.584;9.998;2023-03-14T03:38:36;12.10;99.90
15103;DHT22;7652;53.584;9.998;2023-03-14T03:41:39;12.20;99.90
15103;DHT22;7652;53.584;9.998;2023-03-14T03:44:43;12.20;99.90
15103;DHT22;7652;53.584;9.998;2023-03-14T03:47:46;12.30;99.90
15103;DHT22;7652;53.584;9.998;2023-03-14T03:50:49;12.30;99.90
15103;DHT22;7652;53.584;9.998;2023-03-14T03:53:52;12.30;99.90
15103;DHT22;7652;53.584;9.998;2023-03-14T03:56:55;12.20;99.90
15103;DHT22;7652;53.584;9.998;2023-03-14T04:00:00;12.20;99.90
15103;DHT22;7652;53.584;9.998;2023-03-14T04:03:03;12.20;99.90
15103;DHT22;7652;53.584;9.998;2023-03-14T04:06:08;12.20;99.90
15103;DHT22;7652;53.584;9.998;2023-03-14T04:09:11;12.10;99.90
15103;DHT22;7652;53.584;9.998;2023-03-14T04:12:15;12.10;99.90
15103;DHT22;7652;53.584;9.998;2023-03-14T04:15:19;12.10;99.90
15103;DHT22;7652;53.584;9.998;2023-03-14T04:18:23;12.00;99.90
15103;DHT22;7652;53.584;9.998;2023-03-14T04:21:26;12.00;99.90
15103;DHT22;7652;53.584;9.998;2023-03-14T04:24:29;11.90;99.90
15103;DHT22;7652;53.584;9.998;2023-03-14T04:27:32;11.90;99.90
15103;DHT22;7652;53.584;9.998;2023-03-14T04:30:36;11.90;99.90
15103;DHT22;7652;53.584;9.998;2023-03-14T04:33:40;11.90;99.90
15103;DHT22;7652;53.584;9.998;2023-03-14T04:36:46;11.90;99.90
15103;DHT22;7652;53.584;9.998;2023-03-14T04:39:49;11.90;99.90
15103;DHT22;7652;53.584;9.998;2023-03-14T04:42:52;11.80;99.90
15103;DHT22;7652;53.584;9.998;2023-03-14T04:45:57;11.80;99.90
15103;DHT22;7652;53.584;9.998;2023-03-14T04:49:00;11.90;99.90
15103;DHT22;7652;53.584;9.998;2023-03-14T04:52:03;11.90;99.90
15103;DHT22;7652;53.584;9.998;2023-03-14T04:55:07;12.00;99.90
15103;DHT22;7652;53.584;9.998;2023-03-14T04:58:10;12.00;99.90
15103;DHT22;7652;53.584;9.998;2023-03-14T05:01:14;12.00;99.90
15103;DHT22;7652;53.584;9.998;2023-03-14T05:04:17;12.00;99.90
15103;DHT22;7652;53.584;9.998;2023-03-14T05:07:20;12.00;99.90
15103;DHT22;7652;53.584;9.998;2023-03-14T05:10:23;12.00;99.90
15103;DHT22;7652;53.584;9.998;2023-03-14T05:13:27;12.00;99.90
15103;DHT22;7652;53.584;9.998;2023-03-14T05:16:31;12.00;99.90
15103;DHT22;7652;53.584;9.998;2023-03-14T05:19:35;12.00;99.90
15103;DHT22;7652;53.584;9.998;2023-03-14T05:22:38;11.70;99.90
15103;DHT22;7652;53.584;9.998;2023-03-14T05:25:42;11.40;99.90
15103;DHT22;7652;53.584;9.998;2023-03-14T05:28:46;11.20;99.90
15103;DHT22;7652;53.584;9.998;2023-03-14T05:31:50;11.00;99.90
15103;DHT22;7652;53.584;9.998;2023-03-14T05:34:53;10.90;99.90
15103;DHT22;7652;53.584;9.998;2023-03-14T05:37:59;10.70;99.90
15103;DHT22;7652;53.584;9.998;2023-03-14T05:41:03;10.60;99.90
15103;DHT22;7652;53.584;9.998;2023-03-14T05:44:06;10.60;99.90
15103;DHT22;7652;53.584;9.998;2023-03-14T05:47:10;10.60;99.90
15103;DHT22;7652;53.584;9.998;2023-03-14T05:50:13;10.50;99.90
15103;DHT22;7652;53.584;9.998;2023-03-14T05:53:16;10.50;99.90
15103;DHT22;7652;53.584;9.998;2023-03-14T05:56:19;10.50;99.90
15103;DHT22;7652;53.584;9.998;2023-03-14T05:59:22;10.40;99.90
15103;DHT22;7652;53.584;9.998;2023-03-14T06:02:27;10.40;99.90
15103;DHT22;7652;53.584;9.998;2023-03-14T06:05:30;10.50;99.90
15103;DHT22;7652;53.584;9.998;2023-03-14T06:08:33;10.50;99.90
15103;DHT22;7652;53.584;9.998;2023-03-14T06:11:36;10.60;99.90
15103;DHT22;7652;53.584;9.998;2023-03-14T06:14:39;10.60;99.90
15103;DHT22;7652;53.584;9.998;2023-03-14T06:17:43;10.70;99.90
15103;DHT22;7652;53.584;9.998;2023-03-14T06:20:46;10.70;99.90
15103;DHT22;7652;53.584;9.998;2023-03-14T06:23:49;10.70;99.90
15103;DHT22;7652;53.584;9.998;2023-03-14T06:26:52;10.70;99.90
15103;DHT22;7652;53.584;9.998;2023-03-14T06:29:55;10.80;99.90
15103;DHT22;7652;53.584;9.998;2023-03-14T06:32:59;10.80;99.90
15103;DHT22;7652;53.584;9.998;2023-03-14T06:36:03;10.70;99.90
15103;DHT22;7652;53.584;9.998;2023-03-14T06:39:06;10.70;99.90
15103;DHT22;7652;53.584;9.998;2023-03-14T06:42:09;10.70;99.90
15103;DHT22;7652;53.584;9.998;2023-03-14T06:45:12;10.70;99.90
15103;DHT22;7652;53.584;9.998;2023-03-14T06:48:16;10.70;99.90
15103;DHT22;7652;53.584;9.998;2023-03-14T06:51:20;10.90;99.90
15103;DHT22;7652;53.584;9.998;2023-03-14T06:54:23;10.90;99.90
15103;DHT22;7652;53.584;9.998;2023-03-14T06:57:27;10.90;99.90
15103;DHT22;7652;53.584;9.998;2023-03-14T07:00:29;11.00;99.90
15103;DHT22;7652;53.584;9.998;2023-03-14T07:03:34;11.00;99.90
15103;DHT22;7652;53.584;9.998;2023-03-14T07:06:37;11.00;99.90
15103;DHT22;7652;53.584;9.998;2023-03-14T07:09:41;11.10;99.90
15103;DHT22;7652;53.584;9.998;2023-03-14T07:12:44;11.10;99.90
15103;DHT22;7652;53.584;9.998;2023-03-14T07:15:47;11.10;99.90
15103;DHT22;7652;53.584;9.998;2023-03-14T07:18:51;11.10;99.90
15103;DHT22;7652;53.584;9.998;2023-03-14T07:21:54;11.10;99.90
15103;DHT22;7652;53.584;9.998;2023-03-14T07:24:57;11.10;99.90
15103;DHT22;7652;53.584;9.998;2023-03-14T07:28:00;11.20;99.90
15103;DHT22;7652;53.584;9.998;2023-03-14T07:31:03;11.30;99.90
15103;DHT22;7652;53.584;9.998;2023-03-14T07:34:08;11.30;99.90
15103;DHT22;7652;53.584;9.998;2023-03-14T07:37:12;11.30;99.90
15103;DHT22;7652;53.584;9.998;2023-03-14T07:40:15;11.30;99.90
15103;DHT22;7652;53.584;9.998;2023-03-14T07:43:18;11.40;99.90
15103;DHT22;7652;53.584;9.998;2023-03-14T07:46:21;11.40;99.90
15103;DHT22;7652;53.584;9.998;2023-03-14T07:49:26;11.30;99.90
15103;DHT22;7652;53.584;9.998;2023-03-14T07:52:29;11.30;99.90
15103;DHT22;7652;53.584;9.998;2023-03-14T07:55:32;11.20;99.90
15103;DHT22;7652;53.584;9.998;2023-03-14T07:58:35;11.20;99.90
15103;DHT22;7652;53.584;9.998;2023-03-14T08:01:38;11.20;99.90
15103;DHT22;7652;53.584;9.998;2023-03-14T08:04:42;11.30;99.90
15103;DHT22;7652;53.584;9.998;2023-03-14T08:07:45;11.40;99.90
15103;DHT22;7652;53.584;9.998;2023-03-14T08:10:48;11.40;99.90
15103;DHT22;7652;53.584;9.998;2023-03-14T08:13:51;11.40;99.90
15103;DHT22;7652;53.584;9.998;2023-03-14T08:16:54;11.50;99.90
15103;DHT22;7652;53.584;9.998;2023-03-14T08:19:58;11.70;99.90
15103;DHT22;7652;53.584;9.998;2023-03-14T08:23:01;12.00;99.90
15103;DHT22;7652;53.584;9.998;2023-03-14T08:26:05;12.00;99.90
15103;DHT22;7652;53.584;9.998;2023-03-14T08:29:08;12.00;99.90
15103;DHT22;7652;53.584;9.998;2023-03-14T08:32:11;12.00;99.90
15103;DHT22;7652;53.584;9.998;2023-03-14T08:35:16;12.00;99.90
15103;DHT22;7652;53.584;9.998;2023-03-14T08:38:19;11.90;99.90
15103;DHT22;7652;53.584;9.998;2023-03-14T08:41:22;11.90;99.90
15103;DHT22;7652;53.584;9.998;2023-03-14T08:44:25;12.00;99.90
15103;DHT22;7652;53.584;9.998;2023-03-14T08:47:28;12.00;99.90
15103;DHT22;7652;53.584;9.998;2023-03-14T08:50:33;12.00;99.90
15103;DHT22;7652;53.584;9.998;2023-03-14T08:53:36;11.90;99.90
15103;DHT22;7652;53.584;9.998;2023-03-14T08:56:39;11.90;99.90
15103;DHT22;7652;53.584;9.998;2023-03-14T08:59:43;11.80;99.90
15103;DHT22;7652;53.584;9.998;2023-03-14T09:02:46;11.80;99.90
15103;DHT22;7652;53.584;9.998;2023-03-14T09:05:50;11.70;99.90
15103;DHT22;7652;53.584;9.998;2023-03-14T09:08:54;11.70;99.90
15103;DHT22;7652;53.584;9.998;2023-03-14T09:11:57;11.60;99.90
15103;DHT22;7652;53.584;9.998;2023-03-14T09:15:00;11.50;99.90
15103;DHT22;7652;53.584;9.998;2023-03-14T09:18:03;11.40;99.90
15103;DHT22;7652;53.584;9.998;2023-03-14T09:21:07;11.40;99.90
15103;DHT22;7652;53.584;9.998;2023-03-14T09:24:10;11.40;99.90
15103;DHT22;7652;53.584;9.998;2023-03-14T09:27:13;11.40;99.90
15103;DHT22;7652;53.584;9.998;2023-03-14T09:30:16;11.50;99.90
15103;DHT22;7652;53.584;9.998;2023-03-14T09:33:20;11.50;99.90
15103;DHT22;7652;53.584;9.998;2023-03-14T09:36:24;11.50;99.90
15103;DHT22;7652;53.584;9.998;2023-03-14T09:39:27;11.50;99.90
15103;DHT22;7652;53.584;9.998;2023-03-14T09:42:30;11.60;99.90
15103;DHT22;7652;53.584;9.998;2023-03-14T09:45:35;11.70;99.90
15103;DHT22;7652;53.584;9.998;2023-03-14T09:48:39;11.80;99.90
15103;DHT22;7652;53.584;9.998;2023-03-14T09:51:45;11.80;99.90
15103;DHT22;7652;53.584;9.998;2023-03-14T09:54:50;11.60;99.90
15103;DHT22;7652;53.584;9.998;2023-03-14T09:57:57;11.50;99.90
15103;DHT22;7652;53.584;9.998;2023-03-14T10:01:02;11.20;99.90
15103;DHT22;7652;53.584;9.998;2023-03-14T10:04:09;10.70;99.90
15103;DHT22;7652;53.584;9.998;2023-03-14T10:07:18;10.40;99.90
15103;DHT22;7652;53.584;9.998;2023-03-14T10:10:24;10.10;99.90
15103;DHT22;7652;53.584;9.998;2023-03-14T10:13:28;9.80;99.90
15103;DHT22;7652;53.584;9.998;2023-03-14T10:16:35;9.60;99.90
15103;DHT22;7652;53.584;9.998;2023-03-14T10:19:50;9.50;99.90
15103;DHT22;7652;53.584;9.998;2023-03-14T10:22:55;9.20;99.90
15103;DHT22;7652;53.584;9.998;2023-03-14T10:26:03;9.10;99.90
15103;DHT22;7652;53.584;9.998;2023-03-14T10:29:11;8.90;99.90
15103;DHT22;7652;53.584;9.998;2023-03-14T10:32:19;8.80;99.90
15103;DHT22;7652;53.584;9.998;2023-03-14T10:35:24;8.60;99.90
15103;DHT22;7652;53.584;9.998;2023-03-14T10:38:30;8.40;99.90
15103;DHT22;7652;53.584;9.998;2023-03-14T10:41:33;8.30;99.90
15103;DHT22;7652;53.584;9.998;2023-03-14T10:44:37;8.00;99.90
15103;DHT22;7652;53.584;9.998;2023-03-14T10:47:48;7.90;99.90
15103;DHT22;7652;53.584;9.998;2023-03-14T10:50:56;7.90;99.90
15103;DHT22;7652;53.584;9.998;2023-03-14T10:54:02;7.80;99.90
15103;DHT22;7652;53.584;9.998;2023-03-14T10:57:06;7.80;99.90
15103;DHT22;7652;53.584;9.998;2023-03-14T11:00:14;7.70;99.90
15103;DHT22;7652;53.584;9.998;2023-03-14T11:03:19;7.60;99.90
15103;DHT22;7652;53.584;9.998;2023-03-14T11:06:28;7.60;99.90
15103;DHT22;7652;53.584;9.998;2023-03-14T11:09:38;7.50;99.90
15103;DHT22;7652;53.584;9.998;2023-03-14T11:12:55;7.50;99.90
15103;DHT22;7652;53.584;9.998;2023-03-14T11:16:09;7.40;99.90
15103;DHT22;7652;53.584;9.998;2023-03-14T11:19:24;7.20;99.90
15103;DHT22;7652;53.584;9.998;2023-03-14T11:22:39;7.20;99.90
15103;DHT22;7652;53.584;9.998;2023-03-14T11:25:50;7.10;99.90
15103;DHT22;7652;53.584;9.998;2023-03-14T11:28:58;7.10;99.90
15103;DHT22;7652;53.584;9.998;2023-03-14T11:32:12;7.10;99.90
15103;DHT22;7652;53.584;9.998;2023-03-14T11:35:20;7.10;99.90
15103;DHT22;7652;53.584;9.998;2023-03-14T11:38:32;7.10;99.90
15103;DHT22;7652;53.584;9.998;2023-03-14T11:41:39;7.30;99.90
15103;DHT22;7652;53.584;9.998;2023-03-14T11:44:45;7.20;99.90
15103;DHT22;7652;53.584;9.998;2023-03-14T11:47:51;7.30;99.90
15103;DHT22;7652;53.584;9.998;2023-03-14T11:50:59;7.20;99.90
15103;DHT22;7652;53.584;9.998;2023-03-14T11:54:11;7.30;99.90
15103;DHT22;7652;53.584;9.998;2023-03-14T11:57:20;7.60;99.90
15103;DHT22;7652;53.584;9.998;2023-03-14T12:00:24;7.80;99.90
15103;DHT22;7652;53.584;9.998;2023-03-14T12:03:32;7.90;99.90
15103;DHT22;7652;53.584;9.998;2023-03-14T12:06:44;7.80;99.90
15103;DHT22;7652;53.584;9.998;2023-03-14T12:09:49;7.80;99.90
15103;DHT22;7652;53.584;9.998;2023-03-14T12:12:54;7.70;99.90
15103;DHT22;7652;53.584;9.998;2023-03-14T12:15:59;7.70;99.90
15103;DHT22;7652;53.584;9.998;2023-03-14T12:19:15;7.60;99.90
15103;DHT22;7652;53.584;9.998;2023-03-14T12:22:27;7.80;99.90
15103;DHT22;7652;53.584;9.998;2023-03-14T12:25:32;7.70;99.90
15103;DHT22;7652;53.584;9.998;2023-03-14T12:28:38;7.60;99.90
15103;DHT22;7652;53.584;9.998;2023-03-14T12:31:43;7.70;99.90
15103;DHT22;7652;53.584;9.998;2023-03-14T12:34:46;7.60;99.90
15103;DHT22;7652;53.584;9.998;2023-03-14T12:37:51;7.60;99.90
15103;DHT22;7652;53.584;9.998;2023-03-14T12:41:02;7.50;99.90
15103;DHT22;7652;53.584;9.998;2023-03-14T12:48:06;7.70;99.90
15103;DHT22;7652;53.584;9.998;2023-03-14T12:51:13;7.50;99.90
15103;DHT22;7652;53.584;9.998;2023-03-14T12:54:35;7.60;99.90
15103;DHT22;7652;53.584;9.998;2023-03-14T12:57:52;7.70;99.90
15103;DHT22;7652;53.584;9.998;2023-03-14T13:01:00;7.70;99.90
15103;DHT22;7652;53.584;9.998;2023-03-14T13:04:09;7.80;99.90
15103;DHT22;7652;53.584;9.998;2023-03-14T13:07:15;7.90;99.90
15103;DHT22;7652;53.584;9.998;2023-03-14T13:10:39;7.90;99.90
15103;DHT22;7652;53.584;9.998;2023-03-14T13:13:46;7.90;99.90
15103;DHT22;7652;53.584;9.998;2023-03-14T13:16:50;7.90;99.90
15103;DHT22;7652;53.584;9.998;2023-03-14T13:19:57;8.00;99.90
15103;DHT22;7652;53.584;9.998;2023-03-14T13:23:02;8.20;99.90
15103;DHT22;7652;53.584;9.998;2023-03-14T13:26:11;8.50;99.90
15103;DHT22;7652;53.584;9.998;2023-03-14T13:29:17;9.00;99.90
15103;DHT22;7652;53.584;9.998;2023-03-14T13:32:25;9.50;99.90
15103;DHT22;7652;53.584;9.998;2023-03-14T13:35:39;9.60;99.90
15103;DHT22;7652;53.584;9.998;2023-03-14T13:38:42;9.40;99.90
15103;DHT22;7652;53.584;9.998;2023-03-14T13:41:46;9.10;99.90
15103;DHT22;7652;53.584;9.998;2023-03-14T13:44:51;9.00;99.90
15103;DHT22;7652;53.584;9.998;2023-03-14T13:47:54;8.80;99.90
15103;DHT22;7652;53.584;9.998;2023-03-14T13:51:02;8.70;99.90
15103;DHT22;7652;53.584;9.998;2023-03-14T13:54:13;8.70;99.90
15103;DHT22;7652;53.584;9.998;2023-03-14T13:57:16;8.70;99.90
15103;DHT22;7652;53.584;9.998;2023-03-14T14:00:21;8.70;99.90
15103;DHT22;7652;53.584;9.998;2023-03-14T14:03:26;8.60;99.90
15103;DHT22;7652;53.584;9.998;2023-03-14T14:06:33;8.50;99.90
15103;DHT22;7652;53.584;9.998;2023-03-14T14:09:38;8.50;99.90
15103;DHT22;7652;53.584;9.998;2023-03-14T14:12:44;8.40;99.90
15103;DHT22;7652;53.584;9.998;2023-03-14T14:15:52;8.30;99.90
15103;DHT22;7652;53.584;9.998;2023-03-14T14:18:57;8.20;99.90
15103;DHT22;7652;53.584;9.998;2023-03-14T14:22:03;8.20;99.90
15103;DHT22;7652;53.584;9.998;2023-03-14T14:25:13;8.20;99.90
15103;DHT22;7652;53.584;9.998;2023-03-14T14:28:20;8.10;99.90
15103;DHT22;7652;53.584;9.998;2023-03-14T14:31:25;8.10;99.90
15103;DHT22;7652;53.584;9.998;2023-03-14T14:34:28;8.10;99.90
15103;DHT22;7652;53.584;9.998;2023-03-14T14:37:34;8.20;99.90
15103;DHT22;7652;53.584;9.998;2023-03-14T14:40:44;8.10;99.90
15103;DHT22;7652;53.584;9.998;2023-03-14T14:43:48;8.10;99.90
15103;DHT22;7652;53.584;9.998;2023-03-14T14:46:51;8.00;99.90
15103;DHT22;7652;53.584;9.998;2023-03-14T14:49:59;7.90;99.90
15103;DHT22;7652;53.584;9.998;2023-03-14T14:53:20;7.90;99.90
15103;DHT22;7652;53.584;9.998;2023-03-14T14:56:27;7.90;99.90
15103;DHT22;7652;53.584;9.998;2023-03-14T14:59:31;8.00;99.90
15103;DHT22;7652;53.584;9.998;2023-03-14T15:02:37;8.10;99.90
15103;DHT22;7652;53.584;9.998;2023-03-14T15:05:45;8.20;99.90
15103;DHT22;7652;53.584;9.998;2023-03-14T15:08:50;8.20;99.90
15103;DHT22;7652;53.584;9.998;2023-03-14T15:11:53;8.30;99.90
15103;DHT22;7652;53.584;9.998;2023-03-14T15:14:56;8.30;99.90
15103;DHT22;7652;53.584;9.998;2023-03-14T15:17:59;8.20;99.90
15103;DHT22;7652;53.584;9.998;2023-03-14T15:21:02;8.10;99.90
15103;DHT22;7652;53.584;9.998;2023-03-14T15:24:08;8.10;99.90
15103;DHT22;7652;53.584;9.998;2023-03-14T15:27:13;8.10;99.90
15103;DHT22;7652;53.584;9.998;2023-03-14T15:30:18;8.10;99.90
15103;DHT22;7652;53.584;9.998;2023-03-14T15:33:21;8.10;99.90
15103;DHT22;7652;53.584;9.998;2023-03-14T15:36:27;8.20;99.90
15103;DHT22;7652;53.584;9.998;2023-03-14T15:39:33;8.30;99.90
15103;DHT22;7652;53.584;9.998;2023-03-14T15:42:36;8.10;99.90
15103;DHT22;7652;53.584;9.998;2023-03-14T15:45:39;8.00;99.90
15103;DHT22;7652;53.584;9.998;2023-03-14T15:48:43;8.00;99.90
15103;DHT22;7652;53.584;9.998;2023-03-14T15:51:46;8.00;99.90
15103;DHT22;7652;53.584;9.998;2023-03-14T15:54:51;8.00;99.90
15103;DHT22;7652;53.584;9.998;2023-03-14T15:57:54;7.80;99.90
15103;DHT22;7652;53.584;9.998;2023-03-14T16:00:57;7.80;99.90
15103;DHT22;7652;53.584;9.998;2023-03-14T16:04:00;7.70;99.90
15103;DHT22;7652;53.584;9.998;2023-03-14T16:07:04;7.60;99.90
15103;DHT22;7652;53.584;9.998;2023-03-14T16:10:11;7.50;99.90
15103;DHT22;7652;53.584;9.998;2023-03-14T16:13:15;7.50;99.90
15103;DHT22;7652;53.584;9.998;2023-03-14T16:16:18;7.50;99.90
15103;DHT22;7652;53.584;9.998;2023-03-14T16:19:21;7.50;99.90
15103;DHT22;7652;53.584;9.998;2023-03-14T16:22:24;7.50;99.90
15103;DHT22;7652;53.584;9.998;2023-03-14T16:25:29;7.40;99.90
15103;DHT22;7652;53.584;9.998;2023-03-14T16:28:32;7.20;99.90
15103;DHT22;7652;53.584;9.998;2023-03-14T16:31:35;7.20;99.90
15103;DHT22;7652;53.584;9.998;2023-03-14T16:34:43;7.00;99.90
15103;DHT22;7652;53.584;9.998;2023-03-14T16:37:46;7.00;99.90
15103;DHT22;7652;53.584;9.998;2023-03-14T16:40:58;6.90;99.90
15103;DHT22;7652;53.584;9.998;2023-03-14T16:44:01;6.80;99.90
15103;DHT22;7652;53.584;9.998;2023-03-14T16:47:04;6.70;99.90
15103;DHT22;7652;53.584;9.998;2023-03-14T16:50:11;6.70;99.90
15103;DHT22;7652;53.584;9.998;2023-03-14T16:53:14;6.60;99.90
15103;DHT22;7652;53.584;9.998;2023-03-14T16:56:19;6.50;99.90
15103;DHT22;7652;53.584;9.998;2023-03-14T16:59:22;6.40;99.90
15103;DHT22;7652;53.584;9.998;2023-03-14T17:02:26;6.30;99.90
15103;DHT22;7652;53.584;9.998;2023-03-14T17:05:29;6.30;99.90
15103;DHT22;7652;53.584;9.998;2023-03-14T17:08:32;6.20;99.90
15103;DHT22;7652;53.584;9.998;2023-03-14T17:11:36;6.20;99.90
15103;DHT22;7652;53.584;9.998;2023-03-14T17:14:39;6.10;99.90
15103;DHT22;7652;53.584;9.998;2023-03-14T17:17:42;6.00;99.90
15103;DHT22;7652;53.584;9.998;2023-03-14T17:20:45;6.00;99.90
15103;DHT22;7652;53.584;9.998;2023-03-14T17:23:49;6.00;99.90
15103;DHT22;7652;53.584;9.998;2023-03-14T17:26:54;5.90;99.90
15103;DHT22;7652;53.584;9.998;2023-03-14T17:29:56;5.90;99.90
15103;DHT22;7652;53.584;9.998;2023-03-14T17:32:59;5.90;99.90
15103;DHT22;7652;53.584;9.998;2023-03-14T17:36:03;5.80;99.90
15103;DHT22;7652;53.584;9.998;2023-03-14T17:39:06;5.80;99.90
15103;DHT22;7652;53.584;9.998;2023-03-14T17:42:11;5.70;99.90
15103;DHT22;7652;53.584;9.998;2023-03-14T17:45:15;5.70;99.90
15103;DHT22;7652;53.584;9.998;2023-03-14T17:48:18;5.70;99.90
15103;DHT22;7652;53.584;9.998;2023-03-14T17:51:21;5.70;99.90
15103;DHT22;7652;53.584;9.998;2023-03-14T17:54:24;5.60;99.90
15103;DHT22;7652;53.584;9.998;2023-03-14T17:57:28;5.60;99.90
15103;DHT22;7652;53.584;9.998;2023-03-14T18:00:32;5.60;99.90
15103;DHT22;7652;53.584;9.998;2023-03-14T18:03:34;5.50;99.90
15103;DHT22;7652;53.584;9.998;2023-03-14T18:06:37;5.50;99.90
15103;DHT22;7652;53.584;9.998;2023-03-14T18:09:41;5.50;99.90
15103;DHT22;7652;53.584;9.998;2023-03-14T18:12:45;5.40;99.90
15103;DHT22;7652;53.584;9.998;2023-03-14T18:15:48;5.40;99.90
15103;DHT22;7652;53.584;9.998;2023-03-14T18:18:53;5.30;99.90
15103;DHT22;7652;53.584;9.998;2023-03-14T18:21:57;5.30;99.90
15103;DHT22;7652;53.584;9.998;2023-03-14T18:25:00;5.30;99.90
15103;DHT22;7652;53.584;9.998;2023-03-14T18:28:05;5.30;99.90
15103;DHT22;7652;53.584;9.998;2023-03-14T18:31:10;5.40;99.90
15103;DHT22;7652;53.584;9.998;2023-03-14T18:34:14;5.50;99.90
15103;DHT22;7652;53.584;9.998;2023-03-14T18:37:17;5.50;99.90
15103;DHT22;7652;53.584;9.998;2023-03-14T18:40:20;5.60;99.90
15103;DHT22;7652;53.584;9.998;2023-03-14T18:43:24;5.60;99.90
15103;DHT22;7652;53.584;9.998;2023-03-14T18:46:28;5.60;99.90
15103;DHT22;7652;53.584;9.998;2023-03-14T18:49:31;5.40;99.90
15103;DHT22;7652;53.584;9.998;2023-03-14T18:52:36;5.10;99.90
15103;DHT22;7652;53.584;9.998;2023-03-14T18:55:39;4.90;99.90
15103;DHT22;7652;53.584;9.998;2023-03-14T18:58:44;4.70;99.90
15103;DHT22;7652;53.584;9.998;2023-03-14T19:01:47;4.60;99.90
15103;DHT22;7652;53.584;9.998;2023-03-14T19:04:50;4.50;99.90
15103;DHT22;7652;53.584;9.998;2023-03-14T19:07:53;4.50;99.90
15103;DHT22;7652;53.584;9.998;2023-03-14T19:10:58;4.40;99.90
15103;DHT22;7652;53.584;9.998;2023-03-14T19:14:05;4.40;99.90
15103;DHT22;7652;53.584;9.998;2023-03-14T19:17:09;4.50;99.90
15103;DHT22;7652;53.584;9.998;2023-03-14T19:20:12;4.40;99.90
15103;DHT22;7652;53.584;9.998;2023-03-14T19:23:15;4.40;99.90
15103;DHT22;7652;53.584;9.998;2023-03-14T19:26:18;4.30;99.90
15103;DHT22;7652;53.584;9.998;2023-03-14T19:29:23;4.30;99.90
15103;DHT22;7652;53.584;9.998;2023-03-14T19:32:26;4.30;99.90
15103;DHT22;7652;53.584;9.998;2023-03-14T19:35:29;4.30;99.90
15103;DHT22;7652;53.584;9.998;2023-03-14T19:38:32;4.30;99.90
15103;DHT22;7652;53.584;9.998;2023-03-14T19:41:35;4.30;99.90
15103;DHT22;7652;53.584;9.998;2023-03-14T19:44:40;4.30;99.90
15103;DHT22;7652;53.584;9.998;2023-03-14T19:47:43;4.30;99.90
15103;DHT22;7652;53.584;9.998;2023-03-14T19:50:46;4.30;99.90
15103;DHT22;7652;53.584;9.998;2023-03-14T19:53:49;4.30;99.90
15103;DHT22;7652;53.584;9.998;2023-03-14T19:56:53;4.40;99.90
15103;DHT22;7652;53.584;9.998;2023-03-14T19:59:57;4.50;99.90